createdAt,value
2017-07-10T00:01:18.153Z,74.20
2017-07-10T00:03:45.591Z,74.10
2017-07-10T00:06:13.047Z,74.10
2017-07-10T00:08:40.489Z,73.90
2017-07-10T00:11:07.915Z,73.90
2017-07-10T00:13:36.117Z,74.00
2017-07-10T00:16:03.545Z,74.00
2017-07-10T00:18:30.977Z,74.10
2017-07-10T00:20:59.175Z,74.80
2017-07-10T00:23:26.620Z,74.50
2017-07-10T00:25:54.045Z,74.90
2017-07-10T00:28:21.478Z,75.10
2017-07-10T00:30:49.906Z,75.00
2017-07-10T00:33:18.104Z,75.30
2017-07-10T00:35:45.538Z,75.10
2017-07-10T00:38:13.733Z,75.50
2017-07-10T00:40:41.165Z,75.40
2017-07-10T00:43:08.607Z,75.50
2017-07-10T00:45:36.046Z,75.60
2017-07-10T00:48:03.477Z,75.90
2017-07-10T00:50:30.918Z,75.80
2017-07-10T00:52:58.344Z,76.00
2017-07-10T00:55:26.538Z,77.10
2017-07-10T00:57:53.966Z,76.00
2017-07-10T01:00:21.421Z,76.10
2017-07-10T01:02:48.834Z,76.30
2017-07-10T01:05:16.274Z,76.50
2017-07-10T01:07:43.697Z,76.60
2017-07-10T01:10:11.902Z,76.70
2017-07-10T01:12:39.325Z,76.50
2017-07-10T01:15:07.519Z,76.70
2017-07-10T01:17:34.954Z,76.70
2017-07-10T01:20:03.153Z,77.10
2017-07-10T01:22:30.585Z,76.70
2017-07-10T01:24:58.771Z,76.60
2017-07-10T01:27:26.214Z,76.60
2017-07-10T01:29:54.405Z,76.60
2017-07-10T01:32:21.845Z,76.60
2017-07-10T01:34:50.047Z,76.80
2017-07-10T01:37:17.478Z,76.80
2017-07-10T01:39:45.679Z,76.80
2017-07-10T01:42:13.113Z,76.70
2017-07-10T01:44:41.297Z,76.80
2017-07-10T01:47:08.725Z,76.70
2017-07-10T01:49:36.915Z,77.80
2017-07-10T01:52:04.365Z,77.00
2017-07-10T01:54:32.629Z,77.00
2017-07-10T01:57:00.822Z,77.40
2017-07-10T01:59:28.262Z,77.30
2017-07-10T02:01:56.450Z,77.50
2017-07-10T02:04:23.898Z,77.40
2017-07-10T02:06:51.313Z,77.70
2017-07-10T02:09:18.744Z,77.70
2017-07-10T02:11:46.193Z,77.90
2017-07-10T02:14:13.621Z,77.70
2017-07-10T02:16:41.817Z,77.60
2017-07-10T02:19:09.249Z,77.50
2017-07-10T02:21:37.442Z,77.40
2017-07-10T02:24:04.868Z,77.30
2017-07-10T02:26:33.075Z,76.90
2017-07-10T02:29:00.541Z,76.90
2017-07-10T02:31:28.706Z,77.30
2017-07-10T02:33:56.127Z,77.30
2017-07-10T02:36:24.319Z,76.70
2017-07-10T02:38:51.762Z,76.60
2017-07-10T02:41:19.981Z,76.70
2017-07-10T02:43:47.425Z,76.70
2017-07-10T02:46:14.845Z,76.70
2017-07-10T02:48:43.042Z,77.10
2017-07-10T02:51:10.483Z,77.10
2017-07-10T02:53:38.682Z,77.70
2017-07-10T02:56:06.151Z,77.70
2017-07-10T02:58:33.576Z,77.70
2017-07-10T03:01:01.024Z,78.00
2017-07-10T03:03:29.232Z,78.00
2017-07-10T03:06:28.442Z,78.00
2017-07-10T03:08:57.729Z,78.50
2017-07-10T03:11:25.156Z,78.50
2017-07-10T03:13:53.350Z,79.00
2017-07-10T03:16:20.842Z,79.00
2017-07-10T03:18:48.281Z,79.10
2017-07-10T03:21:15.798Z,79.40
2017-07-10T03:23:43.216Z,79.80
2017-07-10T03:26:10.642Z,79.70
2017-07-10T03:28:38.087Z,79.50
2017-07-10T03:31:05.523Z,79.50
2017-07-10T03:33:33.738Z,79.90
2017-07-10T03:36:01.165Z,79.80
2017-07-10T03:38:28.597Z,79.70
2017-07-10T03:40:56.807Z,79.70
2017-07-10T03:43:24.235Z,79.60
2017-07-10T03:45:52.443Z,79.80
2017-07-10T03:48:19.863Z,79.80
2017-07-10T03:50:48.053Z,79.80
2017-07-10T03:53:15.505Z,79.80
2017-07-10T03:55:43.021Z,79.50
2017-07-10T03:58:10.467Z,79.80
2017-07-10T04:00:37.894Z,79.80
2017-07-10T04:03:05.321Z,79.80
2017-07-10T04:05:33.517Z,79.90
2017-07-10T04:08:00.947Z,79.90
2017-07-10T04:10:29.149Z,79.60
2017-07-10T04:12:56.586Z,79.60
2017-07-10T04:15:24.027Z,79.50
2017-07-10T04:17:51.443Z,79.20
2017-07-10T04:20:18.869Z,79.00
2017-07-10T04:22:46.293Z,78.90
2017-07-10T04:25:14.480Z,78.90
2017-07-10T04:27:41.910Z,78.80
2017-07-10T04:30:09.422Z,79.00
2017-07-10T04:32:36.846Z,79.00
2017-07-10T04:35:05.063Z,79.20
2017-07-10T04:37:32.485Z,79.10
2017-07-10T04:39:59.927Z,79.10
2017-07-10T04:42:28.150Z,79.40
2017-07-10T04:44:55.609Z,79.30
2017-07-10T04:47:23.032Z,79.40
2017-07-10T04:49:50.461Z,79.60
2017-07-10T04:52:18.662Z,80.60
2017-07-10T04:54:46.096Z,79.50
2017-07-10T04:57:13.526Z,79.90
2017-07-10T04:59:40.957Z,79.80
2017-07-10T05:02:08.422Z,80.10
2017-07-10T05:04:35.845Z,80.20
2017-07-10T05:07:03.275Z,80.40
2017-07-10T05:09:31.482Z,80.60
2017-07-10T05:11:58.921Z,80.60
2017-07-10T05:14:26.346Z,80.90
2017-07-10T05:16:53.780Z,80.50
2017-07-10T05:19:21.223Z,80.80
2017-07-10T05:21:48.644Z,81.70
2017-07-10T05:24:16.066Z,82.50
2017-07-10T05:26:43.490Z,84.60
2017-07-10T05:29:10.931Z,84.20
2017-07-10T05:31:38.353Z,83.90
2017-07-10T05:34:05.790Z,85.00
2017-07-10T05:36:33.218Z,84.70
2017-07-10T05:39:00.660Z,84.70
2017-07-10T05:41:28.077Z,85.40
2017-07-10T05:43:55.517Z,85.60
2017-07-10T05:46:23.718Z,86.70
2017-07-10T05:48:51.149Z,86.70
2017-07-10T05:51:19.346Z,87.40
2017-07-10T05:53:46.875Z,87.30
2017-07-10T05:56:14.250Z,87.80
2017-07-10T05:58:41.721Z,87.70
2017-07-10T06:01:09.151Z,88.50
2017-07-10T06:03:37.358Z,88.60
2017-07-10T06:06:04.783Z,88.60
2017-07-10T06:08:32.223Z,89.80
2017-07-10T06:10:59.645Z,90.10
2017-07-10T06:13:27.069Z,90.20
2017-07-10T06:15:54.662Z,90.00
2017-07-10T06:18:22.871Z,90.80
2017-07-10T06:20:50.285Z,91.10
2017-07-10T06:23:17.723Z,90.90
2017-07-10T06:25:45.926Z,90.50
2017-07-10T06:28:13.351Z,90.70
2017-07-10T06:30:41.543Z,91.50
2017-07-10T06:33:08.977Z,91.50
2017-07-10T06:35:36.406Z,91.90
2017-07-10T06:38:03.825Z,92.10
2017-07-10T06:40:31.262Z,92.30
2017-07-10T06:42:58.701Z,92.40
2017-07-10T06:45:26.900Z,92.90
2017-07-10T06:47:54.334Z,92.90
2017-07-10T06:50:22.543Z,92.90
2017-07-10T06:52:49.969Z,92.90
2017-07-10T06:55:18.189Z,92.80
2017-07-10T06:57:45.631Z,92.80
2017-07-10T07:00:13.057Z,92.50
2017-07-10T07:02:41.277Z,92.30
2017-07-10T07:05:08.701Z,92.30
2017-07-10T07:07:36.129Z,92.30
2017-07-10T07:10:04.325Z,92.50
2017-07-10T07:12:31.756Z,92.40
2017-07-10T07:14:59.177Z,92.10
2017-07-10T07:17:26.811Z,91.90
2017-07-10T07:19:54.238Z,91.90
2017-07-10T07:22:22.425Z,92.10
2017-07-10T07:24:49.857Z,92.10
2017-07-10T07:27:18.054Z,92.20
2017-07-10T07:29:45.539Z,92.20
2017-07-10T07:32:12.952Z,92.30
2017-07-10T07:34:41.157Z,91.50
2017-07-10T07:37:08.579Z,91.50
2017-07-10T07:39:36.858Z,91.30
2017-07-10T07:42:05.096Z,91.20
2017-07-10T07:44:32.542Z,91.20
2017-07-10T07:47:00.038Z,91.10
2017-07-10T07:49:27.477Z,91.50
2017-07-10T07:51:54.910Z,91.60
2017-07-10T07:54:22.337Z,91.30
2017-07-10T07:56:49.775Z,91.40
2017-07-10T07:59:17.984Z,91.70
2017-07-10T08:01:45.401Z,91.30
2017-07-10T08:04:13.598Z,91.10
2017-07-10T08:06:41.029Z,91.10
2017-07-10T08:09:09.225Z,90.30
2017-07-10T08:11:36.653Z,90.20
2017-07-10T08:14:04.864Z,89.20
2017-07-10T08:16:32.286Z,89.10
2017-07-10T08:19:00.469Z,88.10
2017-07-10T08:21:27.921Z,87.20
2017-07-10T08:23:56.106Z,85.80
2017-07-10T08:26:23.529Z,85.80
2017-07-10T08:28:51.738Z,85.10
2017-07-10T08:31:19.155Z,85.10
2017-07-10T08:33:46.587Z,85.40
2017-07-10T08:36:14.007Z,85.40
2017-07-10T08:38:42.125Z,86.30
2017-07-10T08:41:09.559Z,87.30
2017-07-10T08:43:36.986Z,88.80
2017-07-10T08:46:04.422Z,89.30
2017-07-10T08:48:31.863Z,90.10
2017-07-10T08:50:59.298Z,90.30
2017-07-10T08:53:26.713Z,90.40
2017-07-10T08:55:54.151Z,90.80
2017-07-10T08:58:21.582Z,91.10
2017-07-10T09:00:49.023Z,91.40
2017-07-10T09:03:16.445Z,91.60
2017-07-10T09:05:43.883Z,91.60
2017-07-10T09:08:11.326Z,92.00
2017-07-10T09:10:38.743Z,91.80
2017-07-10T09:13:06.173Z,91.60
2017-07-10T09:15:33.661Z,91.60
2017-07-10T09:18:01.086Z,91.30
2017-07-10T09:20:28.620Z,91.10
2017-07-10T09:22:56.815Z,91.40
2017-07-10T09:25:24.244Z,91.00
2017-07-10T09:27:52.447Z,91.30
2017-07-10T09:30:19.888Z,91.30
2017-07-10T09:32:48.078Z,91.00
2017-07-10T09:35:15.519Z,91.00
2017-07-10T09:37:43.707Z,91.60
2017-07-10T09:40:11.149Z,91.60
2017-07-10T09:42:39.349Z,91.60
2017-07-10T09:45:06.793Z,91.60
2017-07-10T09:47:34.226Z,92.30
2017-07-10T09:50:02.445Z,92.70
2017-07-10T09:52:29.875Z,92.70
2017-07-10T09:54:57.314Z,93.00
2017-07-10T09:57:25.509Z,93.40
2017-07-10T09:59:52.945Z,93.30
2017-07-10T10:02:21.149Z,93.60
2017-07-10T10:04:48.574Z,93.50
2017-07-10T10:07:16.790Z,93.90
2017-07-10T10:09:44.205Z,93.90
2017-07-10T10:12:12.421Z,93.70
2017-07-10T10:14:39.862Z,93.70
2017-07-10T10:17:07.289Z,93.90
2017-07-10T10:19:35.497Z,94.10
2017-07-10T10:22:02.940Z,94.10
2017-07-10T10:24:30.378Z,94.20
2017-07-10T10:26:58.585Z,94.20
2017-07-10T10:29:26.013Z,94.20
2017-07-10T10:31:53.451Z,94.30
2017-07-10T10:34:21.642Z,93.80
2017-07-10T10:36:49.072Z,93.80
2017-07-10T10:39:16.497Z,93.40
2017-07-10T10:41:43.934Z,93.60
2017-07-10T10:44:11.366Z,93.80
2017-07-10T10:46:38.806Z,93.80
2017-07-10T10:49:06.254Z,94.10
2017-07-10T10:51:33.698Z,94.00
2017-07-10T10:54:01.118Z,94.00
2017-07-10T10:56:28.585Z,94.40
2017-07-10T10:58:56.025Z,94.20
2017-07-10T11:01:23.445Z,94.20
2017-07-10T11:03:51.646Z,94.30
2017-07-10T11:06:19.075Z,94.30
2017-07-10T11:08:47.274Z,94.40
2017-07-10T11:11:14.708Z,94.30
2017-07-10T11:13:43.645Z,94.70
2017-07-10T11:16:11.072Z,94.40
2017-07-10T11:18:38.504Z,94.40
2017-07-10T11:21:06.701Z,94.40
2017-07-10T11:23:34.904Z,94.40
2017-07-10T11:26:02.357Z,94.40
2017-07-10T11:28:29.789Z,94.10
2017-07-10T11:30:57.231Z,94.30
2017-07-10T11:33:24.662Z,93.80
2017-07-10T11:35:52.094Z,93.90
2017-07-10T11:38:19.547Z,94.10
2017-07-10T11:40:46.982Z,94.00
2017-07-10T11:43:14.431Z,93.70
2017-07-10T11:45:41.852Z,93.40
2017-07-10T11:48:10.041Z,92.90
2017-07-10T11:50:37.468Z,92.90
2017-07-10T11:53:04.901Z,92.70
2017-07-10T11:55:32.332Z,92.50
2017-07-10T11:57:59.769Z,92.20
2017-07-10T12:00:27.198Z,92.40
2017-07-10T12:02:54.626Z,92.50
2017-07-10T12:05:22.070Z,92.80
2017-07-10T12:07:49.493Z,92.90
2017-07-10T12:10:16.928Z,93.10
2017-07-10T12:12:45.198Z,93.20
2017-07-10T12:15:12.625Z,92.80
2017-07-10T12:17:40.061Z,92.80
2017-07-10T12:20:07.493Z,92.70
2017-07-10T12:22:34.918Z,92.60
2017-07-10T12:25:02.444Z,92.80
2017-07-10T12:27:29.877Z,92.70
2017-07-10T12:29:57.301Z,92.90
2017-07-10T12:32:25.510Z,92.40
2017-07-10T12:34:52.928Z,92.40
2017-07-10T12:37:21.134Z,92.40
2017-07-10T12:39:48.567Z,92.40
2017-07-10T12:42:16.763Z,92.20
2017-07-10T12:44:44.206Z,92.20
2017-07-10T12:47:12.395Z,92.50
2017-07-10T12:49:39.825Z,92.50
2017-07-10T12:52:08.031Z,92.40
2017-07-10T12:54:35.470Z,92.40
2017-07-10T12:57:02.890Z,92.50
2017-07-10T12:59:30.333Z,92.70
2017-07-10T13:01:57.758Z,92.60
2017-07-10T13:04:25.190Z,92.50
2017-07-10T13:06:52.629Z,92.60
2017-07-10T13:09:20.823Z,92.00
2017-07-10T13:11:48.245Z,92.00
2017-07-10T13:14:16.458Z,90.80
2017-07-10T13:16:43.890Z,91.10
2017-07-10T13:19:12.086Z,91.30
2017-07-10T13:21:39.537Z,91.30
2017-07-10T13:24:06.972Z,91.00
2017-07-10T13:26:35.245Z,91.00
2017-07-10T13:29:02.658Z,91.00
2017-07-10T13:31:30.097Z,91.10
2017-07-10T13:33:57.513Z,91.50
2017-07-10T13:36:25.710Z,91.50
2017-07-10T13:38:53.170Z,91.50
2017-07-10T13:41:20.603Z,91.10
2017-07-10T13:43:48.798Z,90.60
2017-07-10T13:46:16.243Z,90.70
2017-07-10T13:48:44.429Z,90.90
2017-07-10T13:51:11.861Z,90.80
2017-07-10T13:53:40.054Z,90.70
2017-07-10T14:48:48.678Z,90.90
2017-07-10T14:51:16.887Z,91.70
2017-07-10T14:53:44.314Z,91.70
2017-07-10T14:56:12.524Z,91.10
2017-07-10T14:58:39.949Z,91.00
2017-07-10T15:01:07.394Z,91.30
2017-07-10T15:03:35.635Z,90.80
2017-07-10T15:06:03.068Z,90.80
2017-07-10T15:08:30.507Z,90.50
2017-07-10T15:10:57.944Z,90.50
2017-07-10T15:13:26.129Z,90.10
2017-07-10T15:15:53.567Z,90.10
2017-07-10T15:18:21.783Z,90.30
2017-07-10T15:20:49.270Z,90.30
2017-07-10T15:23:16.713Z,90.70
2017-07-10T15:25:44.151Z,90.40
2017-07-10T15:28:11.599Z,90.40
2017-07-10T15:30:39.035Z,90.10
2017-07-10T15:33:06.467Z,90.00
2017-07-10T15:35:33.893Z,89.80
2017-07-10T15:38:01.349Z,89.40
2017-07-10T15:40:28.783Z,90.00
2017-07-10T15:42:56.218Z,90.00
2017-07-10T15:45:23.645Z,88.90
2017-07-10T15:47:51.842Z,83.50
2017-07-10T15:50:19.287Z,84.00
2017-07-10T15:52:47.477Z,81.90
2017-07-10T15:55:14.918Z,81.80
2017-07-10T15:57:43.113Z,83.70
2017-07-10T16:00:10.537Z,83.60
2017-07-10T16:02:38.732Z,85.40
2017-07-10T16:05:06.159Z,84.60
2017-07-10T16:07:33.586Z,84.50
2017-07-10T16:10:01.009Z,84.50
2017-07-10T16:12:28.445Z,84.70
2017-07-10T16:14:55.893Z,84.60
2017-07-10T16:17:23.300Z,83.70
2017-07-10T16:19:50.749Z,83.90
2017-07-10T16:22:19.107Z,83.40
2017-07-10T16:24:47.344Z,83.90
2017-07-10T16:27:14.790Z,83.90
2017-07-10T16:29:42.230Z,84.60
2017-07-10T16:32:09.665Z,83.40
2017-07-10T16:34:37.860Z,84.30
2017-07-10T16:37:05.313Z,83.50
2017-07-10T16:39:33.647Z,83.10
2017-07-10T16:42:01.114Z,83.00
2017-07-10T16:44:28.557Z,82.70
2017-07-10T16:46:55.984Z,83.50
2017-07-10T16:49:23.434Z,84.20
2017-07-10T16:51:50.864Z,84.90
2017-07-10T16:54:19.150Z,85.40
2017-07-10T16:56:46.579Z,85.60
2017-07-10T16:59:14.010Z,84.80
2017-07-10T17:01:41.442Z,84.60
2017-07-10T17:04:08.933Z,85.20
2017-07-10T17:06:36.363Z,85.20
2017-07-10T17:09:03.809Z,84.80
2017-07-10T17:11:31.238Z,85.40
2017-07-10T17:13:58.683Z,85.20
2017-07-10T17:16:26.895Z,83.40
2017-07-10T17:18:54.342Z,83.40
2017-07-10T17:21:21.764Z,83.50
2017-07-10T17:23:49.981Z,83.60
2017-07-10T17:26:17.410Z,84.40
2017-07-10T17:28:44.863Z,83.40
2017-07-10T17:31:13.056Z,83.60
2017-07-10T17:33:40.534Z,83.60
2017-07-10T17:36:07.975Z,84.10
2017-07-10T17:38:35.464Z,83.20
2017-07-10T17:41:02.943Z,81.90
2017-07-10T17:43:31.203Z,79.70
2017-07-10T17:45:58.701Z,79.70
2017-07-10T17:48:26.148Z,78.30
2017-07-10T17:50:53.665Z,78.20
2017-07-10T17:53:21.104Z,79.80
2017-07-10T17:55:48.535Z,78.60
2017-07-10T17:58:16.021Z,77.60
2017-07-10T18:00:43.455Z,77.20
2017-07-10T18:03:10.873Z,79.20
2017-07-10T18:05:39.077Z,79.80
2017-07-10T18:08:06.501Z,79.70
2017-07-10T18:10:33.925Z,80.50
2017-07-10T18:13:02.121Z,81.00
2017-07-10T18:15:29.566Z,81.00
2017-07-10T18:17:57.061Z,81.40
2017-07-10T18:20:25.248Z,83.20
2017-07-10T18:22:52.681Z,83.10
2017-07-10T18:25:20.882Z,84.00
2017-07-10T18:27:48.309Z,83.90
2017-07-10T18:30:16.514Z,84.80
2017-07-10T18:32:43.945Z,84.70
2017-07-10T18:35:11.378Z,84.30
2017-07-10T18:37:38.844Z,85.40
2017-07-10T18:40:07.036Z,85.40
2017-07-10T18:42:34.465Z,85.20
2017-07-10T18:45:02.663Z,85.70
2017-07-10T18:47:30.081Z,85.70
2017-07-10T18:49:57.514Z,85.90
2017-07-10T18:52:24.948Z,85.90
2017-07-10T18:54:52.381Z,85.80
2017-07-10T18:57:20.578Z,86.60
2017-07-10T18:59:48.022Z,86.50
2017-07-10T19:02:16.193Z,87.30
2017-07-10T19:04:43.624Z,87.20
2017-07-10T19:07:11.040Z,87.40
2017-07-10T19:09:39.243Z,87.50
2017-07-10T19:12:06.724Z,87.50
2017-07-10T19:14:34.158Z,87.30
2017-07-10T19:17:01.589Z,87.30
2017-07-10T19:19:29.018Z,87.40
2017-07-10T19:21:57.219Z,86.10
2017-07-10T19:24:24.653Z,85.60
2017-07-10T19:26:52.853Z,86.40
2017-07-10T19:29:20.282Z,86.10
2017-07-10T19:31:48.484Z,86.40
2017-07-10T19:34:15.916Z,86.80
2017-07-10T19:36:44.113Z,87.40
2017-07-10T19:39:11.535Z,87.30
2017-07-10T19:41:39.744Z,87.90
2017-07-10T19:44:07.193Z,87.90
2017-07-10T19:46:34.623Z,88.20
2017-07-10T19:49:02.827Z,88.70
2017-07-10T19:51:30.277Z,89.40
2017-07-10T19:53:57.694Z,89.70
2017-07-10T19:56:25.141Z,90.00
2017-07-10T19:58:52.569Z,90.20
2017-07-10T20:01:20.012Z,90.30
2017-07-10T20:03:47.462Z,90.60
2017-07-10T20:06:14.904Z,90.70
2017-07-10T20:08:42.329Z,90.80
2017-07-10T20:11:09.760Z,90.90
2017-07-10T20:13:37.195Z,90.90
2017-07-10T20:16:04.789Z,91.10
2017-07-10T20:18:32.215Z,91.30
2017-07-10T20:20:59.651Z,91.30
2017-07-10T20:23:27.092Z,91.50
2017-07-10T20:25:55.285Z,91.90
2017-07-10T20:28:22.811Z,91.90
2017-07-10T20:30:50.249Z,92.00
2017-07-10T20:33:17.672Z,92.00
2017-07-10T20:35:45.109Z,92.40
2017-07-10T20:38:12.539Z,92.20
2017-07-10T20:40:40.732Z,92.30
2017-07-10T20:43:08.174Z,92.30
2017-07-10T20:45:35.606Z,92.30
2017-07-10T20:48:03.051Z,92.30
2017-07-10T20:50:30.468Z,92.00
2017-07-10T20:52:57.908Z,91.70
2017-07-10T20:55:25.350Z,91.60
2017-07-10T20:57:52.767Z,91.30
2017-07-10T21:00:20.769Z,90.90
2017-07-10T21:02:48.978Z,91.40
2017-07-10T21:05:16.410Z,91.40
2017-07-10T21:07:44.622Z,91.20
2017-07-10T21:10:12.057Z,91.20
2017-07-10T21:12:39.585Z,91.70
2017-07-10T21:15:07.787Z,91.70
2017-07-10T21:17:35.216Z,91.60
2017-07-10T21:20:03.418Z,91.90
2017-07-10T21:22:30.861Z,91.90
2017-07-10T21:24:59.065Z,92.40
2017-07-10T21:27:26.498Z,92.30
2017-07-10T21:29:53.941Z,92.70
2017-07-10T21:32:22.146Z,92.70
2017-07-10T21:34:49.684Z,92.70
2017-07-10T21:37:17.121Z,92.40
2017-07-10T21:39:45.509Z,92.30
2017-07-10T21:42:13.706Z,92.30
2017-07-10T21:44:41.134Z,92.20
2017-07-10T21:47:09.339Z,92.40
2017-07-10T21:49:37.522Z,92.30
2017-07-10T21:52:04.974Z,92.30
2017-07-10T21:54:32.393Z,92.20
2017-07-10T21:56:59.829Z,92.10
2017-07-10T21:59:27.242Z,92.00
2017-07-10T22:01:55.460Z,92.40
2017-07-10T22:04:22.906Z,92.30
2017-07-10T22:06:50.324Z,92.10
2017-07-10T22:09:18.535Z,91.60
2017-07-10T22:11:45.954Z,91.60
2017-07-10T22:14:14.154Z,91.30
2017-07-10T22:16:41.640Z,91.60
2017-07-10T22:19:09.081Z,92.10
2017-07-10T22:21:36.502Z,92.60
2017-07-10T22:24:04.717Z,93.30
2017-07-10T22:26:32.147Z,93.20
2017-07-10T22:28:59.580Z,93.20
2017-07-10T22:31:27.769Z,93.80
2017-07-10T22:33:55.209Z,93.80
2017-07-10T22:36:23.410Z,94.30
2017-07-10T22:38:50.841Z,94.00
2017-07-10T22:41:19.029Z,93.40
2017-07-10T22:43:46.469Z,93.40
2017-07-10T22:46:13.891Z,93.20
2017-07-10T22:48:41.333Z,93.10
2017-07-10T22:51:08.752Z,92.80
2017-07-10T22:53:36.990Z,92.90
2017-07-10T22:56:04.410Z,92.80
2017-07-10T22:58:31.916Z,92.50
2017-07-10T23:00:59.327Z,92.50
2017-07-10T23:03:26.937Z,92.30
2017-07-10T23:09:06.771Z,91.80
2017-07-10T23:11:34.183Z,92.30
2017-07-10T23:14:01.609Z,92.10
2017-07-10T23:16:29.044Z,92.10
2017-07-10T23:18:56.471Z,91.90
2017-07-10T23:21:23.894Z,91.70
2017-07-10T23:23:52.097Z,92.50
2017-07-10T23:26:19.521Z,92.50
2017-07-10T23:28:47.745Z,92.80
2017-07-10T23:31:15.174Z,92.80
2017-07-10T23:33:42.601Z,93.20
2017-07-10T23:36:10.840Z,93.70
2017-07-10T23:38:38.284Z,93.70
2017-07-10T23:41:05.718Z,94.00
2017-07-10T23:43:33.154Z,94.30
2017-07-10T23:46:00.580Z,94.50
2017-07-10T23:48:28.013Z,94.70
2017-07-10T23:50:55.450Z,94.70
2017-07-10T23:53:22.876Z,94.80
2017-07-10T23:55:50.478Z,94.80
2017-07-10T23:58:17.907Z,94.70
